createdAt,value
2022-11-25T00:01:47.344Z,11.20
2022-11-25T00:04:15.491Z,11.10
2022-11-25T00:06:44.896Z,11.40
2022-11-25T00:09:13.940Z,11.40
2022-11-25T00:11:43.629Z,11.10
2022-11-25T00:14:15.249Z,11.00
2022-11-25T00:16:48.159Z,11.00
2022-11-25T00:19:18.314Z,11.00
2022-11-25T00:21:50.402Z,11.20
2022-11-25T00:24:18.550Z,10.90
2022-11-25T00:26:46.586Z,11.10
2022-11-25T00:29:16.047Z,10.70
2022-11-25T00:31:45.670Z,10.80
2022-11-25T00:34:17.988Z,10.60
2022-11-25T00:36:49.937Z,10.80
2022-11-25T00:39:20.444Z,10.70
2022-11-25T00:42:05.995Z,10.80
2022-11-25T00:44:41.019Z,10.90
2022-11-25T00:47:12.324Z,10.80
2022-11-25T00:49:45.409Z,10.70
2022-11-25T00:52:25.544Z,10.60
2022-11-25T00:54:54.941Z,10.90
2022-11-25T00:57:24.899Z,10.70
2022-11-25T00:59:53.618Z,10.30
2022-11-25T01:02:23.324Z,10.60
2022-11-25T01:04:51.450Z,10.70
2022-11-25T01:07:24.049Z,10.70
2022-11-25T01:09:52.114Z,10.70
2022-11-25T01:12:22.494Z,10.70
2022-11-25T01:14:55.457Z,10.60
2022-11-25T01:17:23.474Z,10.70
2022-11-25T01:19:55.701Z,10.70
2022-11-25T01:22:28.706Z,10.90
2022-11-25T01:25:00.418Z,10.60
2022-11-25T01:27:28.481Z,10.70
2022-11-25T01:29:56.451Z,10.70
2022-11-25T01:32:25.443Z,10.60
2022-11-25T01:34:53.464Z,10.80
2022-11-25T01:37:21.897Z,10.60
2022-11-25T01:39:51.240Z,10.60
2022-11-25T01:42:20.424Z,10.90
2022-11-25T01:45:28.805Z,10.70
2022-11-25T01:48:00.658Z,10.50
2022-11-25T01:50:32.204Z,10.70
2022-11-25T01:53:05.254Z,11.00
2022-11-25T01:55:37.634Z,10.90
2022-11-25T01:58:13.781Z,10.80
2022-11-25T02:00:41.997Z,10.90
2022-11-25T02:03:11.107Z,10.80
2022-11-25T02:05:51.942Z,10.80
2022-11-25T02:08:26.232Z,11.10
2022-11-25T02:10:57.377Z,11.10
2022-11-25T02:13:26.871Z,10.90
2022-11-25T02:15:54.974Z,11.20
2022-11-25T02:18:26.951Z,11.20
2022-11-25T02:20:55.555Z,11.20
2022-11-25T02:23:32.250Z,11.40
2022-11-25T02:26:05.072Z,11.20
2022-11-25T02:28:35.004Z,11.00
2022-11-25T02:31:05.621Z,10.60
2022-11-25T02:33:36.801Z,10.70
2022-11-25T02:36:07.870Z,11.00
2022-11-25T02:38:40.415Z,11.00
2022-11-25T02:41:15.472Z,10.90
2022-11-25T02:43:49.968Z,11.10
2022-11-25T02:46:24.634Z,10.90
2022-11-25T02:49:08.784Z,11.10
2022-11-25T02:51:39.664Z,11.20
2022-11-25T02:54:12.216Z,11.00
2022-11-25T02:56:45.215Z,11.00
2022-11-25T02:59:13.486Z,11.10
2022-11-25T03:01:41.738Z,11.10
2022-11-25T03:04:11.968Z,11.00
2022-11-25T03:06:40.013Z,10.80
2022-11-25T03:09:08.530Z,10.60
2022-11-25T03:11:58.178Z,11.10
2022-11-25T03:14:26.319Z,11.20
2022-11-25T03:16:54.469Z,11.00
2022-11-25T03:19:25.511Z,10.90
2022-11-25T03:21:53.621Z,10.70
2022-11-25T03:24:21.639Z,10.50
2022-11-25T03:26:52.881Z,10.90
2022-11-25T03:29:21.007Z,11.00
2022-11-25T03:31:51.452Z,10.70
2022-11-25T03:34:25.841Z,10.80
2022-11-25T03:36:54.039Z,11.20
2022-11-25T03:39:25.729Z,11.20
2022-11-25T03:41:55.338Z,11.30
2022-11-25T03:44:23.833Z,11.40
2022-11-25T03:46:53.537Z,11.50
2022-11-25T03:49:22.229Z,11.30
2022-11-25T03:51:50.945Z,11.50
2022-11-25T03:54:20.334Z,11.50
2022-11-25T03:57:16.196Z,11.10
2022-11-25T03:59:44.850Z,11.20
2022-11-25T04:02:15.034Z,11.30
2022-11-25T04:04:51.531Z,11.40
2022-11-25T04:07:20.041Z,11.60
2022-11-25T04:09:50.465Z,11.20
2022-11-25T04:12:41.986Z,11.30
2022-11-25T04:15:11.378Z,11.50
2022-11-25T04:17:41.556Z,10.90
2022-11-25T04:20:13.978Z,11.10
2022-11-25T04:22:47.218Z,11.20
2022-11-25T04:25:16.575Z,11.70
2022-11-25T04:27:48.530Z,11.50
2022-11-25T04:30:22.461Z,11.60
2022-11-25T04:32:53.722Z,11.50
2022-11-25T04:35:22.749Z,11.80
2022-11-25T04:37:54.405Z,11.90
2022-11-25T04:40:24.026Z,11.70
2022-11-25T04:43:10.359Z,11.40
2022-11-25T04:46:12.628Z,11.20
2022-11-25T04:48:34.729Z,11.20
2022-11-25T04:51:03.618Z,11.30
2022-11-25T04:53:31.673Z,11.50
2022-11-25T04:56:00.395Z,11.40
2022-11-25T04:58:53.861Z,11.30
2022-11-25T05:01:30.173Z,11.10
2022-11-25T05:04:08.327Z,11.30
2022-11-25T05:06:37.951Z,11.30
2022-11-25T05:09:07.196Z,11.40
2022-11-25T05:11:38.252Z,11.30
2022-11-25T05:14:08.864Z,11.00
2022-11-25T05:16:37.050Z,11.00
2022-11-25T05:19:05.315Z,10.30
2022-11-25T05:21:34.869Z,10.40
2022-11-25T05:24:02.920Z,10.40
2022-11-25T05:26:38.137Z,10.60
2022-11-25T05:29:08.087Z,10.70
2022-11-25T05:31:39.573Z,10.60
2022-11-25T05:34:07.912Z,10.80
2022-11-25T05:36:37.205Z,10.90
2022-11-25T05:39:05.550Z,10.90
2022-11-25T05:41:58.520Z,10.90
2022-11-25T05:44:28.327Z,11.00
2022-11-25T05:46:57.761Z,11.10
2022-11-25T05:49:25.753Z,11.20
2022-11-25T05:51:54.266Z,11.00
2022-11-25T05:54:31.383Z,10.90
2022-11-25T05:57:00.162Z,10.90
2022-11-25T05:59:40.371Z,11.10
2022-11-25T06:02:29.818Z,11.50
2022-11-25T06:04:59.017Z,11.50
2022-11-25T06:07:27.075Z,11.40
2022-11-25T06:10:00.051Z,11.60
2022-11-25T06:12:32.873Z,11.90
2022-11-25T06:15:02.355Z,11.70
2022-11-25T06:17:30.991Z,11.70
2022-11-25T06:20:11.955Z,11.70
2022-11-25T06:22:40.503Z,11.80
2022-11-25T06:25:11.591Z,12.00
2022-11-25T06:28:10.800Z,11.90
2022-11-25T06:30:33.179Z,12.00
2022-11-25T06:33:12.088Z,11.60
2022-11-25T06:35:41.518Z,11.50
2022-11-25T06:38:09.928Z,11.50
2022-11-25T06:40:38.914Z,11.60
2022-11-25T06:43:06.912Z,11.40
2022-11-25T06:45:36.700Z,11.10
2022-11-25T06:48:09.019Z,11.10
2022-11-25T06:50:37.549Z,10.70
2022-11-25T06:53:05.519Z,10.80
2022-11-25T06:55:33.886Z,10.80
2022-11-25T06:58:33.949Z,10.90
2022-11-25T07:00:53.087Z,11.20
2022-11-25T07:03:21.887Z,10.90
2022-11-25T07:05:49.952Z,10.60
2022-11-25T07:08:18.097Z,10.50
2022-11-25T07:10:46.313Z,10.30
2022-11-25T07:13:14.295Z,10.20
2022-11-25T07:15:42.863Z,9.90
2022-11-25T07:18:15.079Z,10.20
2022-11-25T07:20:43.406Z,10.50
2022-11-25T07:23:11.382Z,10.50
2022-11-25T07:25:39.891Z,10.60
2022-11-25T07:28:07.912Z,10.50
2022-11-25T07:33:26.825Z,10.50
2022-11-25T07:35:57.886Z,10.70
2022-11-25T07:38:26.351Z,10.60
2022-11-25T07:40:54.331Z,10.80
2022-11-25T07:43:22.568Z,11.10
2022-11-25T07:45:51.032Z,11.20
2022-11-25T07:48:19.106Z,11.10
2022-11-25T07:50:50.461Z,10.80
2022-11-25T07:53:25.854Z,10.80
2022-11-25T07:55:54.349Z,10.90
2022-11-25T07:58:22.358Z,10.90
2022-11-25T08:00:53.064Z,10.90
2022-11-25T08:03:22.542Z,10.80
2022-11-25T08:05:51.914Z,11.10
2022-11-25T08:08:20.912Z,11.20
2022-11-25T08:10:51.213Z,11.50
2022-11-25T08:13:19.890Z,11.40
2022-11-25T08:15:48.521Z,11.10
2022-11-25T08:18:17.179Z,11.10
2022-11-25T08:20:48.082Z,11.10
2022-11-25T08:23:17.880Z,11.00
2022-11-25T08:25:50.287Z,10.80
2022-11-25T08:28:19.805Z,10.90
2022-11-25T08:30:47.979Z,10.70
2022-11-25T08:33:16.296Z,10.60
2022-11-25T08:35:44.700Z,10.80
2022-11-25T08:38:16.027Z,10.50
2022-11-25T08:40:47.139Z,10.80
2022-11-25T08:43:15.376Z,10.90
2022-11-25T08:45:43.411Z,11.00
2022-11-25T08:48:11.866Z,11.00
2022-11-25T08:50:40.274Z,11.00
2022-11-25T08:53:08.277Z,11.40
2022-11-25T08:55:37.714Z,11.40
2022-11-25T08:58:10.020Z,11.50
2022-11-25T09:00:38.471Z,11.50
2022-11-25T09:03:06.640Z,11.50
2022-11-25T09:05:36.662Z,11.50
2022-11-25T09:08:06.977Z,11.70
2022-11-25T09:10:35.970Z,11.70
2022-11-25T09:13:04.738Z,11.60
2022-11-25T09:15:36.546Z,11.40
2022-11-25T09:18:08.395Z,11.40
2022-11-25T09:20:41.836Z,11.50
2022-11-25T09:23:13.677Z,11.70
2022-11-25T09:25:41.724Z,11.50
2022-11-25T09:28:11.384Z,11.50
2022-11-25T09:30:40.778Z,11.60
2022-11-25T09:33:10.311Z,11.60
2022-11-25T09:35:39.455Z,11.80
2022-11-25T09:38:07.509Z,11.90
2022-11-25T09:40:41.990Z,11.90
2022-11-25T09:43:44.667Z,11.70
2022-11-25T09:46:46.552Z,11.80
2022-11-25T09:49:37.576Z,11.60
2022-11-25T09:52:17.506Z,11.80
2022-11-25T09:54:52.599Z,12.10
2022-11-25T09:57:26.970Z,12.00
2022-11-25T10:00:13.630Z,11.80
2022-11-25T10:02:52.919Z,11.70
2022-11-25T10:05:28.620Z,11.70
2022-11-25T10:08:02.630Z,11.60
2022-11-25T10:10:37.981Z,11.50
2022-11-25T10:13:12.819Z,11.50
2022-11-25T10:15:45.206Z,11.80
2022-11-25T10:18:22.377Z,12.00
2022-11-25T10:20:52.412Z,11.60
2022-11-25T10:23:28.304Z,11.60
2022-11-25T10:26:00.030Z,11.60
2022-11-25T10:28:34.642Z,11.60
2022-11-25T10:31:08.183Z,11.90
2022-11-25T10:33:44.615Z,11.90
2022-11-25T10:36:18.100Z,12.00
2022-11-25T10:38:55.597Z,12.00
2022-11-25T10:41:29.790Z,12.10
2022-11-25T10:47:12.124Z,11.90
2022-11-25T10:49:44.979Z,12.00
2022-11-25T10:52:15.434Z,11.90
2022-11-25T10:54:56.481Z,11.80
2022-11-25T10:57:29.296Z,11.80
2022-11-25T11:00:00.127Z,11.50
2022-11-25T11:02:30.235Z,11.50
2022-11-25T11:05:08.742Z,11.40
2022-11-25T11:07:39.267Z,11.50
2022-11-25T11:10:21.796Z,11.70
2022-11-25T11:12:59.078Z,12.60
2022-11-25T11:15:31.003Z,12.90
2022-11-25T11:18:00.799Z,13.60
2022-11-25T11:20:32.208Z,13.60
2022-11-25T11:23:09.083Z,13.30
2022-11-25T11:25:40.341Z,13.20
2022-11-25T11:28:33.257Z,13.20
2022-11-25T11:31:03.696Z,13.80
2022-11-25T11:33:38.755Z,14.40
2022-11-25T11:36:29.273Z,15.20
2022-11-25T11:39:11.090Z,15.30
2022-11-25T11:41:45.479Z,15.20
2022-11-25T11:44:24.207Z,14.90
2022-11-25T11:47:08.678Z,14.30
2022-11-25T11:49:54.633Z,14.10
2022-11-25T11:52:31.615Z,14.30
2022-11-25T11:55:06.407Z,13.80
2022-11-25T11:57:48.195Z,13.80
2022-11-25T12:00:30.670Z,13.70
2022-11-25T12:03:03.345Z,13.60
2022-11-25T12:05:37.495Z,13.60
2022-11-25T12:08:13.493Z,13.60
2022-11-25T12:10:46.418Z,13.60
2022-11-25T12:13:21.490Z,13.60
2022-11-25T12:15:55.729Z,14.00
2022-11-25T12:18:43.970Z,14.30
2022-11-25T12:21:22.766Z,14.40
2022-11-25T12:24:03.807Z,14.50
2022-11-25T12:26:41.742Z,15.30
2022-11-25T12:29:14.574Z,15.90
2022-11-25T12:31:48.332Z,16.60
2022-11-25T12:34:21.682Z,16.70
2022-11-25T12:36:50.748Z,17.10
2022-11-25T12:39:25.779Z,17.80
2022-11-25T12:42:00.499Z,17.40
2022-11-25T12:44:36.580Z,16.70
2022-11-25T12:47:04.849Z,15.90
2022-11-25T12:49:42.935Z,15.50
2022-11-25T12:52:37.573Z,15.20
2022-11-25T12:55:13.428Z,14.40
2022-11-25T12:58:15.686Z,14.30
2022-11-25T13:01:13.044Z,14.40
2022-11-25T13:04:17.854Z,15.10
2022-11-25T13:07:16.325Z,15.90
2022-11-25T13:10:30.122Z,16.50
2022-11-25T13:13:18.395Z,16.40
2022-11-25T13:15:49.984Z,16.30
2022-11-25T13:18:21.141Z,15.80
2022-11-25T13:20:50.932Z,15.60
2022-11-25T13:23:31.206Z,15.10
2022-11-25T13:26:40.031Z,14.80
2022-11-25T13:30:03.768Z,14.40
2022-11-25T13:32:48.827Z,14.10
2022-11-25T13:35:54.216Z,14.00
2022-11-25T13:38:57.925Z,13.80
2022-11-25T13:41:36.172Z,13.60
2022-11-25T13:44:26.906Z,13.70
2022-11-25T13:46:56.914Z,13.60
2022-11-25T13:49:58.455Z,13.70
2022-11-25T13:52:37.031Z,13.40
2022-11-25T13:55:26.082Z,13.20
2022-11-25T13:58:18.990Z,13.20
2022-11-25T14:01:24.881Z,13.10
2022-11-25T14:04:05.424Z,13.40
2022-11-25T14:06:59.162Z,13.50
2022-11-25T14:09:48.809Z,13.20
2022-11-25T14:12:34.826Z,13.10
2022-11-25T14:15:39.282Z,13.20
2022-11-25T14:21:56.258Z,13.40
2022-11-25T14:24:32.235Z,13.50
2022-11-25T14:27:01.835Z,13.50
2022-11-25T14:29:43.343Z,13.20
2022-11-25T14:32:16.661Z,13.40
2022-11-25T14:34:50.718Z,13.60
2022-11-25T14:37:25.728Z,13.60
2022-11-25T14:40:00.655Z,13.50
2022-11-25T14:42:46.775Z,13.40
2022-11-25T14:45:23.222Z,13.40
2022-11-25T14:47:51.848Z,13.50
2022-11-25T14:50:39.564Z,13.70
2022-11-25T14:53:10.042Z,13.70
2022-11-25T14:55:39.334Z,13.20
2022-11-25T14:58:07.434Z,13.00
2022-11-25T15:00:35.520Z,13.10
2022-11-25T15:03:06.419Z,13.30
2022-11-25T15:05:38.204Z,13.30
2022-11-25T15:08:13.775Z,13.30
2022-11-25T15:10:50.828Z,13.40
2022-11-25T15:13:31.047Z,13.30
2022-11-25T15:16:07.433Z,13.30
2022-11-25T15:18:38.647Z,13.30
2022-11-25T15:21:08.593Z,13.40
2022-11-25T15:23:41.361Z,13.40
2022-11-25T15:26:20.026Z,13.30
2022-11-25T15:28:56.224Z,13.40
2022-11-25T15:31:29.655Z,13.30
2022-11-25T15:34:00.445Z,13.30
2022-11-25T15:36:30.338Z,13.10
2022-11-25T15:39:15.495Z,13.20
2022-11-25T15:41:46.084Z,13.20
2022-11-25T15:44:23.254Z,13.10
2022-11-25T15:47:00.868Z,13.10
2022-11-25T15:49:30.074Z,13.10
2022-11-25T15:52:08.154Z,13.00
2022-11-25T15:54:45.276Z,13.20
2022-11-25T15:57:20.145Z,13.20
2022-11-25T15:59:50.941Z,13.30
2022-11-25T16:02:37.983Z,13.10
2022-11-25T16:05:35.890Z,13.00
2022-11-25T16:08:26.778Z,12.90
2022-11-25T16:10:57.045Z,13.00
2022-11-25T16:13:37.294Z,12.80
2022-11-25T16:16:27.981Z,12.80
2022-11-25T16:19:04.820Z,12.90
2022-11-25T16:21:42.870Z,13.00
2022-11-25T16:24:27.130Z,12.80
2022-11-25T16:26:58.173Z,12.90
2022-11-25T16:29:31.555Z,13.00
2022-11-25T16:32:02.649Z,13.30
2022-11-25T16:34:31.719Z,13.40
2022-11-25T16:36:59.734Z,13.50
2022-11-25T16:39:29.499Z,13.40
2022-11-25T16:42:02.385Z,13.40
2022-11-25T16:44:31.689Z,13.40
2022-11-25T16:47:00.418Z,13.50
2022-11-25T16:49:31.283Z,13.50
2022-11-25T16:51:59.734Z,13.40
2022-11-25T16:54:30.525Z,13.50
2022-11-25T16:57:02.439Z,13.50
2022-11-25T16:59:33.810Z,13.60
2022-11-25T17:02:14.904Z,13.60
2022-11-25T17:04:42.998Z,13.70
2022-11-25T17:10:03.185Z,13.50
2022-11-25T17:12:34.175Z,13.70
2022-11-25T17:15:04.940Z,13.70
2022-11-25T17:17:33.743Z,13.70
2022-11-25T17:20:01.869Z,13.50
2022-11-25T17:22:34.773Z,13.50
2022-11-25T17:25:10.710Z,13.50
2022-11-25T17:27:47.793Z,13.50
2022-11-25T17:30:20.789Z,13.60
2022-11-25T17:32:52.264Z,13.60
2022-11-25T17:35:22.209Z,13.50
2022-11-25T17:37:50.767Z,13.50
2022-11-25T17:40:22.638Z,13.50
2022-11-25T17:42:53.898Z,13.50
2022-11-25T17:45:23.296Z,13.30
2022-11-25T17:47:52.045Z,13.10
2022-11-25T17:50:21.696Z,13.00
2022-11-25T17:52:52.500Z,12.90
2022-11-25T17:55:23.342Z,12.70
2022-11-25T17:57:51.412Z,12.60
2022-11-25T18:00:22.448Z,12.40
2022-11-25T18:02:51.247Z,12.50
2022-11-25T18:05:21.296Z,12.70
2022-11-25T18:07:50.154Z,12.60
2022-11-25T18:10:23.878Z,12.70
2022-11-25T18:12:56.318Z,12.40
2022-11-25T18:15:27.444Z,12.40
2022-11-25T18:18:03.261Z,12.60
2022-11-25T18:20:32.890Z,12.60
2022-11-25T18:23:01.753Z,12.50
2022-11-25T18:25:33.457Z,12.40
2022-11-25T18:28:04.303Z,12.50
2022-11-25T18:30:34.534Z,12.50
2022-11-25T18:33:06.184Z,12.50
2022-11-25T18:35:36.650Z,12.50
2022-11-25T18:38:05.628Z,12.60
2022-11-25T18:40:39.641Z,12.60
2022-11-25T18:43:12.998Z,12.60
2022-11-25T18:45:42.437Z,12.60
2022-11-25T18:48:16.124Z,12.50
2022-11-25T18:50:48.099Z,12.50
2022-11-25T18:53:18.660Z,12.50
2022-11-25T18:55:51.108Z,12.30
2022-11-25T18:58:20.999Z,12.40
2022-11-25T19:00:52.460Z,12.40
2022-11-25T19:03:22.559Z,12.30
2022-11-25T19:05:52.245Z,12.30
2022-11-25T19:08:20.269Z,12.10
2022-11-25T19:10:49.851Z,12.10
2022-11-25T19:13:22.049Z,11.80
2022-11-25T19:15:50.318Z,12.00
2022-11-25T19:18:25.582Z,11.90
2022-11-25T19:20:56.449Z,12.00
2022-11-25T19:23:28.604Z,11.90
2022-11-25T19:26:01.914Z,11.90
2022-11-25T19:28:31.320Z,12.10
2022-11-25T19:31:04.323Z,12.10
2022-11-25T19:33:36.556Z,12.20
2022-11-25T19:36:05.406Z,12.30
2022-11-25T19:38:34.719Z,12.20
2022-11-25T19:41:04.226Z,12.40
2022-11-25T19:43:32.402Z,12.40
2022-11-25T19:46:01.668Z,12.50
2022-11-25T19:48:39.045Z,12.30
2022-11-25T19:51:07.375Z,12.20
2022-11-25T19:53:37.715Z,12.30
2022-11-25T19:56:08.037Z,12.30
2022-11-25T19:58:36.279Z,12.20
2022-11-25T20:01:06.359Z,12.00
2022-11-25T20:03:41.767Z,12.00
2022-11-25T20:06:18.125Z,11.90
2022-11-25T20:08:47.981Z,12.20
2022-11-25T20:11:20.402Z,12.10
2022-11-25T20:13:50.842Z,12.00
2022-11-25T20:16:21.734Z,11.80
2022-11-25T20:18:58.856Z,11.80
2022-11-25T20:21:35.044Z,11.80
2022-11-25T20:24:05.754Z,12.00
2022-11-25T20:26:37.863Z,12.20
2022-11-25T20:29:17.837Z,12.30
2022-11-25T20:31:46.375Z,12.40
2022-11-25T20:34:14.488Z,12.40
2022-11-25T20:36:47.677Z,12.30
2022-11-25T20:39:19.695Z,12.20
2022-11-25T20:41:51.260Z,12.20
2022-11-25T20:44:22.939Z,12.20
2022-11-25T20:46:51.837Z,12.20
2022-11-25T20:49:27.070Z,11.80
2022-11-25T20:51:56.548Z,11.70
2022-11-25T20:54:25.584Z,11.80
2022-11-25T20:56:57.248Z,11.80
2022-11-25T20:59:25.511Z,11.80
2022-11-25T21:01:54.581Z,11.90
2022-11-25T21:04:23.658Z,12.20
2022-11-25T21:06:51.906Z,12.20
2022-11-25T21:09:23.741Z,12.10
2022-11-25T21:11:51.963Z,11.90
2022-11-25T21:14:21.524Z,11.80
2022-11-25T21:16:50.295Z,11.70
2022-11-25T21:19:18.529Z,11.70
2022-11-25T21:21:49.399Z,11.60
2022-11-25T21:24:31.581Z,11.60
2022-11-25T21:27:06.109Z,11.50
2022-11-25T21:29:37.814Z,11.40
2022-11-25T21:32:18.785Z,11.70
2022-11-25T21:34:47.474Z,11.80
2022-11-25T21:37:15.767Z,11.60
2022-11-25T21:39:47.039Z,11.70
2022-11-25T21:42:23.066Z,11.70
2022-11-25T21:44:53.332Z,11.50
2022-11-25T21:47:24.489Z,11.40
2022-11-25T21:49:52.940Z,11.30
2022-11-25T21:52:20.975Z,11.40
2022-11-25T21:54:49.637Z,11.70
2022-11-25T21:57:18.604Z,11.60
2022-11-25T21:59:47.785Z,11.40
2022-11-25T22:02:20.689Z,11.30
2022-11-25T22:04:49.132Z,11.40
2022-11-25T22:07:17.562Z,11.30
2022-11-25T22:09:48.453Z,11.20
2022-11-25T22:12:27.505Z,11.10
2022-11-25T22:14:58.324Z,11.30
2022-11-25T22:17:28.916Z,11.30
2022-11-25T22:19:58.290Z,11.30
2022-11-25T22:22:26.339Z,11.40
2022-11-25T22:24:54.758Z,11.30
2022-11-25T22:27:26.001Z,11.40
2022-11-25T22:29:55.396Z,11.40
2022-11-25T22:32:24.086Z,11.10
2022-11-25T22:34:54.500Z,11.00
2022-11-25T22:37:27.287Z,10.90
2022-11-25T22:39:55.403Z,11.00
2022-11-25T22:42:27.495Z,11.10
2022-11-25T22:44:58.355Z,11.30
2022-11-25T22:47:29.833Z,11.30
2022-11-25T22:50:05.789Z,11.20
2022-11-25T22:52:36.119Z,11.10
2022-11-25T22:55:17.837Z,11.20
2022-11-25T22:57:48.949Z,11.30
2022-11-25T23:00:21.662Z,11.10
2022-11-25T23:02:53.703Z,11.20
2022-11-25T23:05:32.114Z,11.30
2022-11-25T23:08:01.609Z,11.10
2022-11-25T23:10:32.467Z,11.10
2022-11-25T23:13:00.517Z,11.00
2022-11-25T23:15:28.553Z,11.10
2022-11-25T23:17:59.616Z,11.00
2022-11-25T23:20:31.855Z,11.10
2022-11-25T23:23:05.885Z,11.10
2022-11-25T23:25:34.337Z,11.20
2022-11-25T23:28:02.341Z,11.20
2022-11-25T23:30:31.261Z,11.20
2022-11-25T23:32:59.702Z,11.10
2022-11-25T23:35:33.683Z,11.00
2022-11-25T23:38:02.479Z,10.90
2022-11-25T23:40:30.841Z,11.00
2022-11-25T23:42:59.567Z,10.90
2022-11-25T23:45:28.740Z,10.90
2022-11-25T23:47:57.769Z,11.00
2022-11-25T23:50:31.024Z,10.70
2022-11-25T23:53:02.944Z,10.80
2022-11-25T23:55:36.930Z,10.80
2022-11-25T23:58:15.835Z,10.90
